sensor_id;sensor_type;location;lat;lon;timestamp;P1;durP1;ratioP1;P2;durP2;ratioP2
48526;SDS011;34317;51.660;5.824;2023-12-22T00:02:21;9.25;;;1.50;;
48526;SDS011;34317;51.660;5.824;2023-12-22T00:04:50;6.32;;;1.77;;
48526;SDS011;34317;51.660;5.824;2023-12-22T00:07:17;5.82;;;1.50;;
48526;SDS011;34317;51.660;5.824;2023-12-22T00:09:47;11.57;;;1.52;;
48526;SDS011;34317;51.660;5.824;2023-12-22T00:12:14;9.13;;;1.67;;
48526;SDS011;34317;51.660;5.824;2023-12-22T00:14:41;11.43;;;1.67;;
48526;SDS011;34317;51.660;5.824;2023-12-22T00:17:09;6.38;;;1.42;;
48526;SDS011;34317;51.660;5.824;2023-12-22T00:19:36;11.30;;;1.90;;
48526;SDS011;34317;51.660;5.824;2023-12-22T00:22:03;11.90;;;1.48;;
48526;SDS011;34317;51.660;5.824;2023-12-22T00:24:31;8.10;;;1.30;;
48526;SDS011;34317;51.660;5.824;2023-12-22T00:26:58;10.63;;;1.48;;
48526;SDS011;34317;51.660;5.824;2023-12-22T00:29:25;10.30;;;1.33;;
48526;SDS011;34317;51.660;5.824;2023-12-22T00:31:55;5.20;;;1.13;;
48526;SDS011;34317;51.660;5.824;2023-12-22T00:34:22;5.25;;;1.27;;
48526;SDS011;34317;51.660;5.824;2023-12-22T00:36:49;7.20;;;1.35;;
48526;SDS011;34317;51.660;5.824;2023-12-22T00:39:17;3.25;;;1.00;;
48526;SDS011;34317;51.660;5.824;2023-12-22T00:41:44;7.28;;;1.50;;
48526;SDS011;34317;51.660;5.824;2023-12-22T00:44:11;8.38;;;1.35;;
48526;SDS011;34317;51.660;5.824;2023-12-22T00:46:38;6.53;;;1.10;;
48526;SDS011;34317;51.660;5.824;2023-12-22T00:49:05;8.45;;;1.33;;
48526;SDS011;34317;51.660;5.824;2023-12-22T00:51:32;6.57;;;1.10;;
48526;SDS011;34317;51.660;5.824;2023-12-22T00:53:59;11.73;;;1.90;;
48526;SDS011;34317;51.660;5.824;2023-12-22T00:56:27;10.77;;;1.60;;
48526;SDS011;34317;51.660;5.824;2023-12-22T00:58:54;6.78;;;1.33;;
48526;SDS011;34317;51.660;5.824;2023-12-22T01:01:31;5.65;;;1.60;;
48526;SDS011;34317;51.660;5.824;2023-12-22T01:03:58;4.93;;;1.30;;
48526;SDS011;34317;51.660;5.824;2023-12-22T01:06:25;9.50;;;1.65;;
48526;SDS011;34317;51.660;5.824;2023-12-22T01:08:57;8.77;;;1.55;;
48526;SDS011;34317;51.660;5.824;2023-12-22T01:11:24;10.02;;;1.80;;
48526;SDS011;34317;51.660;5.824;2023-12-22T01:13:51;10.07;;;1.67;;
48526;SDS011;34317;51.660;5.824;2023-12-22T01:16:18;8.50;;;1.48;;
48526;SDS011;34317;51.660;5.824;2023-12-22T01:18:48;8.95;;;1.85;;
48526;SDS011;34317;51.660;5.824;2023-12-22T01:21:16;11.88;;;2.00;;
48526;SDS011;34317;51.660;5.824;2023-12-22T01:23:43;9.50;;;1.60;;
48526;SDS011;34317;51.660;5.824;2023-12-22T01:26:10;13.90;;;1.70;;
48526;SDS011;34317;51.660;5.824;2023-12-22T01:28:38;9.85;;;1.73;;
48526;SDS011;34317;51.660;5.824;2023-12-22T01:31:05;14.95;;;1.67;;
48526;SDS011;34317;51.660;5.824;2023-12-22T01:33:32;10.52;;;1.73;;
48526;SDS011;34317;51.660;5.824;2023-12-22T01:35:59;10.63;;;1.75;;
48526;SDS011;34317;51.660;5.824;2023-12-22T01:38:26;10.07;;;2.00;;
48526;SDS011;34317;51.660;5.824;2023-12-22T01:40:53;11.95;;;1.90;;
48526;SDS011;34317;51.660;5.824;2023-12-22T01:43:20;12.07;;;1.80;;
48526;SDS011;34317;51.660;5.824;2023-12-22T01:45:50;15.30;;;1.75;;
48526;SDS011;34317;51.660;5.824;2023-12-22T01:48:21;9.30;;;1.65;;
48526;SDS011;34317;51.660;5.824;2023-12-22T01:50:50;9.13;;;1.80;;
48526;SDS011;34317;51.660;5.824;2023-12-22T01:53:22;8.75;;;1.80;;
48526;SDS011;34317;51.660;5.824;2023-12-22T01:55:52;10.45;;;1.88;;
48526;SDS011;34317;51.660;5.824;2023-12-22T01:58:24;6.43;;;1.33;;
48526;SDS011;34317;51.660;5.824;2023-12-22T02:00:53;7.85;;;1.38;;
48526;SDS011;34317;51.660;5.824;2023-12-22T02:03:21;6.18;;;1.45;;
48526;SDS011;34317;51.660;5.824;2023-12-22T02:05:48;7.13;;;1.30;;
48526;SDS011;34317;51.660;5.824;2023-12-22T02:08:17;9.05;;;1.70;;
48526;SDS011;34317;51.660;5.824;2023-12-22T02:10:45;7.15;;;1.50;;
48526;SDS011;34317;51.660;5.824;2023-12-22T02:13:12;6.35;;;1.42;;
48526;SDS011;34317;51.660;5.824;2023-12-22T02:15:40;10.73;;;1.38;;
48526;SDS011;34317;51.660;5.824;2023-12-22T02:18:12;6.78;;;1.58;;
48526;SDS011;34317;51.660;5.824;2023-12-22T02:20:45;8.10;;;1.88;;
48526;SDS011;34317;51.660;5.824;2023-12-22T02:23:12;6.68;;;1.40;;
48526;SDS011;34317;51.660;5.824;2023-12-22T02:25:39;7.63;;;1.20;;
48526;SDS011;34317;51.660;5.824;2023-12-22T02:28:07;6.68;;;1.45;;
48526;SDS011;34317;51.660;5.824;2023-12-22T02:33:26;9.57;;;1.25;;
48526;SDS011;34317;51.660;5.824;2023-12-22T02:36:02;11.32;;;1.50;;
48526;SDS011;34317;51.660;5.824;2023-12-22T02:38:31;10.02;;;1.60;;
48526;SDS011;34317;51.660;5.824;2023-12-22T02:41:00;9.07;;;1.88;;
48526;SDS011;34317;51.660;5.824;2023-12-22T02:43:27;9.38;;;1.77;;
48526;SDS011;34317;51.660;5.824;2023-12-22T02:45:55;9.48;;;1.77;;
48526;SDS011;34317;51.660;5.824;2023-12-22T02:48:22;10.55;;;1.48;;
48526;SDS011;34317;51.660;5.824;2023-12-22T02:50:50;8.10;;;1.40;;
48526;SDS011;34317;51.660;5.824;2023-12-22T02:53:17;8.60;;;1.73;;
48526;SDS011;34317;51.660;5.824;2023-12-22T02:55:44;10.88;;;1.50;;
48526;SDS011;34317;51.660;5.824;2023-12-22T02:58:11;12.77;;;2.08;;
48526;SDS011;34317;51.660;5.824;2023-12-22T03:00:39;13.80;;;2.33;;
48526;SDS011;34317;51.660;5.824;2023-12-22T03:03:07;14.07;;;1.88;;
48526;SDS011;34317;51.660;5.824;2023-12-22T03:05:34;11.65;;;2.03;;
48526;SDS011;34317;51.660;5.824;2023-12-22T03:08:01;13.57;;;2.20;;
48526;SDS011;34317;51.660;5.824;2023-12-22T03:10:29;14.77;;;2.38;;
48526;SDS011;34317;51.660;5.824;2023-12-22T03:12:56;19.23;;;2.25;;
48526;SDS011;34317;51.660;5.824;2023-12-22T03:15:23;13.50;;;1.95;;
48526;SDS011;34317;51.660;5.824;2023-12-22T03:17:50;9.75;;;1.95;;
48526;SDS011;34317;51.660;5.824;2023-12-22T03:20:18;11.25;;;1.92;;
48526;SDS011;34317;51.660;5.824;2023-12-22T03:22:45;13.30;;;1.83;;
48526;SDS011;34317;51.660;5.824;2023-12-22T03:25:12;13.10;;;2.15;;
48526;SDS011;34317;51.660;5.824;2023-12-22T03:27:39;11.10;;;1.65;;
48526;SDS011;34317;51.660;5.824;2023-12-22T03:30:06;12.48;;;1.88;;
48526;SDS011;34317;51.660;5.824;2023-12-22T03:32:34;12.90;;;1.92;;
48526;SDS011;34317;51.660;5.824;2023-12-22T03:35:01;11.45;;;1.80;;
48526;SDS011;34317;51.660;5.824;2023-12-22T03:37:29;13.93;;;2.15;;
48526;SDS011;34317;51.660;5.824;2023-12-22T03:39:56;14.40;;;2.33;;
48526;SDS011;34317;51.660;5.824;2023-12-22T03:42:23;12.32;;;2.10;;
48526;SDS011;34317;51.660;5.824;2023-12-22T03:44:50;12.52;;;2.05;;
48526;SDS011;34317;51.660;5.824;2023-12-22T03:47:17;12.65;;;2.13;;
48526;SDS011;34317;51.660;5.824;2023-12-22T03:49:44;13.90;;;2.20;;
48526;SDS011;34317;51.660;5.824;2023-12-22T03:52:11;14.60;;;2.03;;
48526;SDS011;34317;51.660;5.824;2023-12-22T03:54:39;13.88;;;2.40;;
48526;SDS011;34317;51.660;5.824;2023-12-22T03:57:06;13.57;;;2.28;;
48526;SDS011;34317;51.660;5.824;2023-12-22T03:59:33;12.32;;;1.90;;
48526;SDS011;34317;51.660;5.824;2023-12-22T04:02:00;11.43;;;2.08;;
48526;SDS011;34317;51.660;5.824;2023-12-22T04:04:28;16.00;;;2.28;;
48526;SDS011;34317;51.660;5.824;2023-12-22T04:06:55;16.20;;;2.47;;
48526;SDS011;34317;51.660;5.824;2023-12-22T04:09:23;11.90;;;1.88;;
48526;SDS011;34317;51.660;5.824;2023-12-22T04:11:50;12.75;;;2.30;;
48526;SDS011;34317;51.660;5.824;2023-12-22T04:14:17;10.75;;;1.92;;
48526;SDS011;34317;51.660;5.824;2023-12-22T04:16:45;12.00;;;2.30;;
48526;SDS011;34317;51.660;5.824;2023-12-22T04:19:13;13.52;;;2.10;;
48526;SDS011;34317;51.660;5.824;2023-12-22T04:21:40;15.90;;;1.80;;
48526;SDS011;34317;51.660;5.824;2023-12-22T04:24:07;14.25;;;2.00;;
48526;SDS011;34317;51.660;5.824;2023-12-22T04:26:34;9.05;;;2.17;;
48526;SDS011;34317;51.660;5.824;2023-12-22T04:29:01;19.08;;;2.22;;
48526;SDS011;34317;51.660;5.824;2023-12-22T04:31:29;8.20;;;2.15;;
48526;SDS011;34317;51.660;5.824;2023-12-22T04:33:56;13.43;;;2.22;;
48526;SDS011;34317;51.660;5.824;2023-12-22T04:36:23;15.10;;;2.15;;
48526;SDS011;34317;51.660;5.824;2023-12-22T04:38:50;10.32;;;1.73;;
48526;SDS011;34317;51.660;5.824;2023-12-22T04:41:17;10.77;;;1.88;;
48526;SDS011;34317;51.660;5.824;2023-12-22T04:43:44;10.38;;;1.88;;
48526;SDS011;34317;51.660;5.824;2023-12-22T04:46:12;12.10;;;1.80;;
48526;SDS011;34317;51.660;5.824;2023-12-22T04:48:39;14.35;;;2.28;;
48526;SDS011;34317;51.660;5.824;2023-12-22T04:51:06;12.63;;;2.38;;
48526;SDS011;34317;51.660;5.824;2023-12-22T04:53:33;14.60;;;2.28;;
48526;SDS011;34317;51.660;5.824;2023-12-22T04:56:01;13.63;;;2.30;;
48526;SDS011;34317;51.660;5.824;2023-12-22T04:58:28;12.18;;;2.70;;
48526;SDS011;34317;51.660;5.824;2023-12-22T05:00:55;11.35;;;1.95;;
48526;SDS011;34317;51.660;5.824;2023-12-22T05:03:22;15.32;;;2.33;;
48526;SDS011;34317;51.660;5.824;2023-12-22T05:05:49;14.00;;;2.65;;
48526;SDS011;34317;51.660;5.824;2023-12-22T05:08:17;10.57;;;1.95;;
48526;SDS011;34317;51.660;5.824;2023-12-22T05:10:44;13.57;;;2.20;;
48526;SDS011;34317;51.660;5.824;2023-12-22T05:13:11;10.55;;;2.13;;
48526;SDS011;34317;51.660;5.824;2023-12-22T05:15:38;15.23;;;2.30;;
48526;SDS011;34317;51.660;5.824;2023-12-22T05:18:05;17.58;;;2.00;;
48526;SDS011;34317;51.660;5.824;2023-12-22T05:20:33;11.65;;;1.90;;
48526;SDS011;34317;51.660;5.824;2023-12-22T05:23:00;16.23;;;2.25;;
48526;SDS011;34317;51.660;5.824;2023-12-22T05:25:27;11.48;;;2.50;;
48526;SDS011;34317;51.660;5.824;2023-12-22T05:27:56;12.63;;;2.10;;
48526;SDS011;34317;51.660;5.824;2023-12-22T05:30:23;11.93;;;1.83;;
48526;SDS011;34317;51.660;5.824;2023-12-22T05:32:50;11.82;;;1.95;;
48526;SDS011;34317;51.660;5.824;2023-12-22T05:35:18;10.07;;;1.80;;
48526;SDS011;34317;51.660;5.824;2023-12-22T05:37:45;11.93;;;1.80;;
48526;SDS011;34317;51.660;5.824;2023-12-22T05:40:13;10.57;;;1.95;;
48526;SDS011;34317;51.660;5.824;2023-12-22T05:42:40;11.93;;;2.08;;
48526;SDS011;34317;51.660;5.824;2023-12-22T05:45:07;8.27;;;1.70;;
48526;SDS011;34317;51.660;5.824;2023-12-22T05:47:36;15.13;;;2.08;;
48526;SDS011;34317;51.660;5.824;2023-12-22T05:50:04;9.23;;;1.75;;
48526;SDS011;34317;51.660;5.824;2023-12-22T05:52:32;11.02;;;2.25;;
48526;SDS011;34317;51.660;5.824;2023-12-22T05:54:59;10.32;;;1.92;;
48526;SDS011;34317;51.660;5.824;2023-12-22T05:57:26;10.48;;;1.83;;
48526;SDS011;34317;51.660;5.824;2023-12-22T05:59:53;11.82;;;1.92;;
48526;SDS011;34317;51.660;5.824;2023-12-22T06:02:21;9.98;;;1.90;;
48526;SDS011;34317;51.660;5.824;2023-12-22T06:04:48;12.45;;;1.90;;
48526;SDS011;34317;51.660;5.824;2023-12-22T06:07:15;9.60;;;1.40;;
48526;SDS011;34317;51.660;5.824;2023-12-22T06:09:42;9.18;;;1.80;;
48526;SDS011;34317;51.660;5.824;2023-12-22T06:12:10;8.82;;;1.65;;
48526;SDS011;34317;51.660;5.824;2023-12-22T06:14:39;8.23;;;1.70;;
48526;SDS011;34317;51.660;5.824;2023-12-22T06:17:06;8.20;;;1.45;;
48526;SDS011;34317;51.660;5.824;2023-12-22T06:19:35;8.25;;;1.50;;
48526;SDS011;34317;51.660;5.824;2023-12-22T06:22:03;12.77;;;2.28;;
48526;SDS011;34317;51.660;5.824;2023-12-22T06:24:30;14.77;;;2.47;;
48526;SDS011;34317;51.660;5.824;2023-12-22T06:26:57;10.07;;;2.00;;
48526;SDS011;34317;51.660;5.824;2023-12-22T06:29:24;11.50;;;2.00;;
48526;SDS011;34317;51.660;5.824;2023-12-22T06:31:54;10.18;;;2.00;;
48526;SDS011;34317;51.660;5.824;2023-12-22T06:34:21;9.55;;;1.80;;
48526;SDS011;34317;51.660;5.824;2023-12-22T06:36:49;16.33;;;2.35;;
48526;SDS011;34317;51.660;5.824;2023-12-22T06:39:16;10.77;;;2.22;;
48526;SDS011;34317;51.660;5.824;2023-12-22T06:41:44;14.27;;;2.03;;
48526;SDS011;34317;51.660;5.824;2023-12-22T06:44:11;10.98;;;1.90;;
48526;SDS011;34317;51.660;5.824;2023-12-22T06:46:38;12.00;;;2.33;;
48526;SDS011;34317;51.660;5.824;2023-12-22T06:49:05;16.60;;;2.78;;
48526;SDS011;34317;51.660;5.824;2023-12-22T06:51:33;17.20;;;1.98;;
48526;SDS011;34317;51.660;5.824;2023-12-22T06:54:04;12.60;;;2.38;;
48526;SDS011;34317;51.660;5.824;2023-12-22T06:56:33;12.38;;;2.20;;
48526;SDS011;34317;51.660;5.824;2023-12-22T06:59:01;17.40;;;2.55;;
48526;SDS011;34317;51.660;5.824;2023-12-22T07:01:30;11.35;;;2.42;;
48526;SDS011;34317;51.660;5.824;2023-12-22T07:04:01;11.25;;;2.20;;
48526;SDS011;34317;51.660;5.824;2023-12-22T07:06:30;14.55;;;2.60;;
48526;SDS011;34317;51.660;5.824;2023-12-22T07:11:26;18.08;;;3.40;;
48526;SDS011;34317;51.660;5.824;2023-12-22T07:14:03;13.07;;;3.30;;
48526;SDS011;34317;51.660;5.824;2023-12-22T07:16:31;13.10;;;2.60;;
48526;SDS011;34317;51.660;5.824;2023-12-22T07:18:59;22.77;;;3.47;;
48526;SDS011;34317;51.660;5.824;2023-12-22T07:21:27;17.40;;;3.53;;
48526;SDS011;34317;51.660;5.824;2023-12-22T07:23:54;16.20;;;3.00;;
48526;SDS011;34317;51.660;5.824;2023-12-22T07:26:22;16.98;;;2.58;;
48526;SDS011;34317;51.660;5.824;2023-12-22T07:28:50;9.25;;;1.80;;
48526;SDS011;34317;51.660;5.824;2023-12-22T07:31:19;10.68;;;1.90;;
48526;SDS011;34317;51.660;5.824;2023-12-22T07:33:47;13.25;;;2.42;;
48526;SDS011;34317;51.660;5.824;2023-12-22T07:36:15;17.77;;;2.72;;
48526;SDS011;34317;51.660;5.824;2023-12-22T07:38:42;20.48;;;3.38;;
48526;SDS011;34317;51.660;5.824;2023-12-22T07:41:09;13.95;;;2.72;;
48526;SDS011;34317;51.660;5.824;2023-12-22T07:43:38;16.50;;;2.70;;
48526;SDS011;34317;51.660;5.824;2023-12-22T07:46:05;11.80;;;2.47;;
48526;SDS011;34317;51.660;5.824;2023-12-22T07:48:33;18.77;;;2.45;;
48526;SDS011;34317;51.660;5.824;2023-12-22T07:51:00;13.50;;;2.85;;
48526;SDS011;34317;51.660;5.824;2023-12-22T07:53:27;16.38;;;2.45;;
48526;SDS011;34317;51.660;5.824;2023-12-22T07:55:54;9.85;;;2.45;;
48526;SDS011;34317;51.660;5.824;2023-12-22T07:58:21;23.88;;;2.72;;
48526;SDS011;34317;51.660;5.824;2023-12-22T08:00:49;16.90;;;2.80;;
48526;SDS011;34317;51.660;5.824;2023-12-22T08:03:16;18.10;;;2.53;;
48526;SDS011;34317;51.660;5.824;2023-12-22T08:05:43;15.15;;;2.60;;
48526;SDS011;34317;51.660;5.824;2023-12-22T08:08:10;24.33;;;3.28;;
48526;SDS011;34317;51.660;5.824;2023-12-22T08:10:37;17.55;;;2.55;;
48526;SDS011;34317;51.660;5.824;2023-12-22T08:13:05;14.07;;;2.60;;
48526;SDS011;34317;51.660;5.824;2023-12-22T08:15:32;19.90;;;2.63;;
48526;SDS011;34317;51.660;5.824;2023-12-22T08:18:03;16.88;;;2.50;;
48526;SDS011;34317;51.660;5.824;2023-12-22T08:20:30;14.48;;;2.65;;
48526;SDS011;34317;51.660;5.824;2023-12-22T08:23:04;16.38;;;2.50;;
48526;SDS011;34317;51.660;5.824;2023-12-22T08:25:37;12.75;;;2.55;;
48526;SDS011;34317;51.660;5.824;2023-12-22T08:28:06;15.88;;;2.22;;
48526;SDS011;34317;51.660;5.824;2023-12-22T08:30:34;15.63;;;1.95;;
48526;SDS011;34317;51.660;5.824;2023-12-22T08:33:01;12.45;;;2.10;;
48526;SDS011;34317;51.660;5.824;2023-12-22T08:35:28;10.93;;;1.92;;
48526;SDS011;34317;51.660;5.824;2023-12-22T08:37:55;14.52;;;2.17;;
48526;SDS011;34317;51.660;5.824;2023-12-22T08:40:23;19.65;;;2.00;;
48526;SDS011;34317;51.660;5.824;2023-12-22T08:42:54;11.75;;;2.35;;
48526;SDS011;34317;51.660;5.824;2023-12-22T08:45:26;10.85;;;1.95;;
48526;SDS011;34317;51.660;5.824;2023-12-22T08:47:57;12.35;;;2.28;;
48526;SDS011;34317;51.660;5.824;2023-12-22T08:50:25;7.82;;;1.83;;
48526;SDS011;34317;51.660;5.824;2023-12-22T08:52:52;7.40;;;1.65;;
48526;SDS011;34317;51.660;5.824;2023-12-22T08:55:19;8.10;;;1.77;;
48526;SDS011;34317;51.660;5.824;2023-12-22T08:57:47;10.20;;;1.70;;
48526;SDS011;34317;51.660;5.824;2023-12-22T09:00:25;10.20;;;1.80;;
48526;SDS011;34317;51.660;5.824;2023-12-22T09:02:53;4.72;;;1.20;;
48526;SDS011;34317;51.660;5.824;2023-12-22T09:05:21;9.25;;;1.52;;
48526;SDS011;34317;51.660;5.824;2023-12-22T09:07:49;11.00;;;1.83;;
48526;SDS011;34317;51.660;5.824;2023-12-22T09:10:17;7.18;;;1.80;;
48526;SDS011;34317;51.660;5.824;2023-12-22T09:12:44;6.07;;;1.40;;
48526;SDS011;34317;51.660;5.824;2023-12-22T09:15:11;6.68;;;1.30;;
48526;SDS011;34317;51.660;5.824;2023-12-22T09:17:39;3.83;;;1.10;;
48526;SDS011;34317;51.660;5.824;2023-12-22T09:20:11;7.65;;;1.40;;
48526;SDS011;34317;51.660;5.824;2023-12-22T09:22:39;7.40;;;1.55;;
48526;SDS011;34317;51.660;5.824;2023-12-22T09:25:06;7.20;;;1.48;;
48526;SDS011;34317;51.660;5.824;2023-12-22T09:27:35;7.00;;;1.67;;
48526;SDS011;34317;51.660;5.824;2023-12-22T09:30:03;6.82;;;1.30;;
48526;SDS011;34317;51.660;5.824;2023-12-22T09:32:33;5.55;;;1.20;;
48526;SDS011;34317;51.660;5.824;2023-12-22T09:35:02;4.00;;;1.20;;
48526;SDS011;34317;51.660;5.824;2023-12-22T09:37:30;4.97;;;1.05;;
48526;SDS011;34317;51.660;5.824;2023-12-22T09:39:57;6.00;;;1.10;;
48526;SDS011;34317;51.660;5.824;2023-12-22T09:42:24;3.63;;;1.05;;
48526;SDS011;34317;51.660;5.824;2023-12-22T09:44:53;4.60;;;1.05;;
48526;SDS011;34317;51.660;5.824;2023-12-22T09:47:22;4.75;;;1.10;;
48526;SDS011;34317;51.660;5.824;2023-12-22T09:49:49;4.90;;;0.90;;
48526;SDS011;34317;51.660;5.824;2023-12-22T09:52:19;4.63;;;0.95;;
48526;SDS011;34317;51.660;5.824;2023-12-22T09:54:46;3.45;;;0.90;;
48526;SDS011;34317;51.660;5.824;2023-12-22T09:57:15;1.77;;;0.80;;
48526;SDS011;34317;51.660;5.824;2023-12-22T09:59:54;3.15;;;0.75;;
48526;SDS011;34317;51.660;5.824;2023-12-22T10:02:22;3.55;;;0.80;;
48526;SDS011;34317;51.660;5.824;2023-12-22T10:04:54;3.05;;;0.73;;
48526;SDS011;34317;51.660;5.824;2023-12-22T10:07:21;9.07;;;1.00;;
48526;SDS011;34317;51.660;5.824;2023-12-22T10:09:49;3.50;;;0.80;;
48526;SDS011;34317;51.660;5.824;2023-12-22T10:12:17;2.17;;;0.75;;
48526;SDS011;34317;51.660;5.824;2023-12-22T10:14:49;2.38;;;0.80;;
48526;SDS011;34317;51.660;5.824;2023-12-22T10:17:18;2.03;;;0.77;;
48526;SDS011;34317;51.660;5.824;2023-12-22T10:19:45;3.63;;;0.80;;
48526;SDS011;34317;51.660;5.824;2023-12-22T10:22:12;1.70;;;0.90;;
48526;SDS011;34317;51.660;5.824;2023-12-22T10:24:40;4.57;;;1.20;;
48526;SDS011;34317;51.660;5.824;2023-12-22T10:27:14;2.85;;;0.90;;
48526;SDS011;34317;51.660;5.824;2023-12-22T10:29:43;2.42;;;0.95;;
48526;SDS011;34317;51.660;5.824;2023-12-22T10:32:10;4.20;;;0.85;;
48526;SDS011;34317;51.660;5.824;2023-12-22T10:34:37;2.90;;;0.75;;
48526;SDS011;34317;51.660;5.824;2023-12-22T10:37:06;3.67;;;0.85;;
48526;SDS011;34317;51.660;5.824;2023-12-22T10:39:33;5.47;;;1.00;;
48526;SDS011;34317;51.660;5.824;2023-12-22T10:42:03;6.60;;;0.80;;
48526;SDS011;34317;51.660;5.824;2023-12-22T10:44:30;8.13;;;0.73;;
48526;SDS011;34317;51.660;5.824;2023-12-22T10:46:58;2.53;;;0.90;;
48526;SDS011;34317;51.660;5.824;2023-12-22T10:49:27;2.25;;;0.80;;
48526;SDS011;34317;51.660;5.824;2023-12-22T10:51:54;4.38;;;1.00;;
48526;SDS011;34317;51.660;5.824;2023-12-22T10:54:21;2.20;;;0.70;;
48526;SDS011;34317;51.660;5.824;2023-12-22T10:56:48;2.55;;;0.95;;
48526;SDS011;34317;51.660;5.824;2023-12-22T10:59:18;5.25;;;1.00;;
48526;SDS011;34317;51.660;5.824;2023-12-22T11:01:51;3.30;;;0.95;;
48526;SDS011;34317;51.660;5.824;2023-12-22T11:04:20;3.85;;;0.77;;
48526;SDS011;34317;51.660;5.824;2023-12-22T11:06:49;1.98;;;0.70;;
48526;SDS011;34317;51.660;5.824;2023-12-22T11:09:21;3.45;;;0.82;;
48526;SDS011;34317;51.660;5.824;2023-12-22T11:11:52;5.70;;;0.93;;
48526;SDS011;34317;51.660;5.824;2023-12-22T11:14:19;1.98;;;0.70;;
48526;SDS011;34317;51.660;5.824;2023-12-22T11:16:47;2.33;;;0.80;;
48526;SDS011;34317;51.660;5.824;2023-12-22T11:19:15;2.97;;;0.70;;
48526;SDS011;34317;51.660;5.824;2023-12-22T11:21:45;2.25;;;0.70;;
48526;SDS011;34317;51.660;5.824;2023-12-22T11:24:14;1.23;;;0.60;;
48526;SDS011;34317;51.660;5.824;2023-12-22T11:26:42;6.43;;;0.82;;
48526;SDS011;34317;51.660;5.824;2023-12-22T11:29:12;3.13;;;0.80;;
48526;SDS011;34317;51.660;5.824;2023-12-22T11:31:41;5.78;;;1.02;;
48526;SDS011;34317;51.660;5.824;2023-12-22T11:34:11;4.40;;;1.10;;
48526;SDS011;34317;51.660;5.824;2023-12-22T11:36:45;2.78;;;0.90;;
48526;SDS011;34317;51.660;5.824;2023-12-22T11:39:14;3.10;;;0.90;;
48526;SDS011;34317;51.660;5.824;2023-12-22T11:41:41;5.28;;;0.82;;
48526;SDS011;34317;51.660;5.824;2023-12-22T11:44:10;3.38;;;1.13;;
48526;SDS011;34317;51.660;5.824;2023-12-22T11:46:37;3.15;;;0.82;;
48526;SDS011;34317;51.660;5.824;2023-12-22T11:49:05;3.42;;;0.98;;
48526;SDS011;34317;51.660;5.824;2023-12-22T11:51:33;4.75;;;0.77;;
48526;SDS011;34317;51.660;5.824;2023-12-22T11:54:03;3.70;;;0.90;;
48526;SDS011;34317;51.660;5.824;2023-12-22T11:56:30;2.97;;;0.73;;
48526;SDS011;34317;51.660;5.824;2023-12-22T11:58:58;2.50;;;0.80;;
48526;SDS011;34317;51.660;5.824;2023-12-22T12:01:27;5.18;;;1.00;;
48526;SDS011;34317;51.660;5.824;2023-12-22T12:04:02;3.08;;;0.90;;
48526;SDS011;34317;51.660;5.824;2023-12-22T12:06:33;3.30;;;1.13;;
48526;SDS011;34317;51.660;5.824;2023-12-22T12:09:04;1.30;;;0.85;;
48526;SDS011;34317;51.660;5.824;2023-12-22T12:14:33;2.35;;;0.70;;
48526;SDS011;34317;51.660;5.824;2023-12-22T12:17:07;0.85;;;0.60;;
48526;SDS011;34317;51.660;5.824;2023-12-22T12:19:39;6.78;;;0.90;;
48526;SDS011;34317;51.660;5.824;2023-12-22T12:22:11;2.85;;;0.65;;
48526;SDS011;34317;51.660;5.824;2023-12-22T12:24:40;2.83;;;0.80;;
48526;SDS011;34317;51.660;5.824;2023-12-22T12:27:08;2.35;;;0.75;;
48526;SDS011;34317;51.660;5.824;2023-12-22T12:29:36;1.58;;;0.63;;
48526;SDS011;34317;51.660;5.824;2023-12-22T12:32:04;2.03;;;1.00;;
48526;SDS011;34317;51.660;5.824;2023-12-22T12:34:33;2.47;;;0.90;;
48526;SDS011;34317;51.660;5.824;2023-12-22T12:37:01;5.07;;;1.05;;
48526;SDS011;34317;51.660;5.824;2023-12-22T12:39:30;2.50;;;0.70;;
48526;SDS011;34317;51.660;5.824;2023-12-22T12:42:01;8.70;;;1.15;;
48526;SDS011;34317;51.660;5.824;2023-12-22T12:44:30;4.13;;;0.98;;
48526;SDS011;34317;51.660;5.824;2023-12-22T12:47:10;3.50;;;0.88;;
48526;SDS011;34317;51.660;5.824;2023-12-22T12:49:39;3.95;;;0.90;;
48526;SDS011;34317;51.660;5.824;2023-12-22T12:52:11;2.90;;;1.30;;
48526;SDS011;34317;51.660;5.824;2023-12-22T12:54:39;2.47;;;0.95;;
48526;SDS011;34317;51.660;5.824;2023-12-22T12:57:06;3.88;;;1.10;;
48526;SDS011;34317;51.660;5.824;2023-12-22T12:59:33;5.35;;;0.90;;
48526;SDS011;34317;51.660;5.824;2023-12-22T13:02:01;6.72;;;1.38;;
48526;SDS011;34317;51.660;5.824;2023-12-22T13:04:38;4.10;;;0.88;;
48526;SDS011;34317;51.660;5.824;2023-12-22T13:07:05;4.65;;;1.20;;
48526;SDS011;34317;51.660;5.824;2023-12-22T13:09:33;4.18;;;0.82;;
48526;SDS011;34317;51.660;5.824;2023-12-22T13:12:01;2.80;;;0.82;;
48526;SDS011;34317;51.660;5.824;2023-12-22T13:14:30;4.47;;;0.98;;
48526;SDS011;34317;51.660;5.824;2023-12-22T13:16:57;3.33;;;1.00;;
48526;SDS011;34317;51.660;5.824;2023-12-22T13:19:25;3.55;;;0.98;;
48526;SDS011;34317;51.660;5.824;2023-12-22T13:21:54;2.45;;;0.70;;
48526;SDS011;34317;51.660;5.824;2023-12-22T13:24:22;2.47;;;0.80;;
48526;SDS011;34317;51.660;5.824;2023-12-22T13:26:58;6.40;;;0.90;;
48526;SDS011;34317;51.660;5.824;2023-12-22T13:29:45;1.45;;;0.85;;
48526;SDS011;34317;51.660;5.824;2023-12-22T13:32:15;4.30;;;0.90;;
48526;SDS011;34317;51.660;5.824;2023-12-22T13:34:48;3.72;;;0.93;;
48526;SDS011;34317;51.660;5.824;2023-12-22T13:37:17;6.32;;;0.80;;
48526;SDS011;34317;51.660;5.824;2023-12-22T13:39:45;2.40;;;0.70;;
48526;SDS011;34317;51.660;5.824;2023-12-22T13:42:16;1.67;;;0.75;;
48526;SDS011;34317;51.660;5.824;2023-12-22T13:44:44;6.88;;;0.90;;
48526;SDS011;34317;51.660;5.824;2023-12-22T13:47:16;7.50;;;1.00;;
48526;SDS011;34317;51.660;5.824;2023-12-22T13:49:44;3.42;;;1.00;;
48526;SDS011;34317;51.660;5.824;2023-12-22T13:52:25;6.47;;;0.93;;
48526;SDS011;34317;51.660;5.824;2023-12-22T13:54:55;3.33;;;0.73;;
48526;SDS011;34317;51.660;5.824;2023-12-22T13:57:24;4.80;;;0.70;;
48526;SDS011;34317;51.660;5.824;2023-12-22T13:59:53;2.88;;;0.70;;
48526;SDS011;34317;51.660;5.824;2023-12-22T14:02:21;3.80;;;0.80;;
48526;SDS011;34317;51.660;5.824;2023-12-22T14:04:50;4.43;;;0.90;;
48526;SDS011;34317;51.660;5.824;2023-12-22T14:07:18;3.85;;;0.88;;
48526;SDS011;34317;51.660;5.824;2023-12-22T14:09:45;4.07;;;0.75;;
48526;SDS011;34317;51.660;5.824;2023-12-22T14:12:13;1.40;;;0.70;;
48526;SDS011;34317;51.660;5.824;2023-12-22T14:14:50;3.42;;;0.95;;
48526;SDS011;34317;51.660;5.824;2023-12-22T14:17:17;2.63;;;0.70;;
48526;SDS011;34317;51.660;5.824;2023-12-22T14:19:46;2.13;;;0.80;;
48526;SDS011;34317;51.660;5.824;2023-12-22T14:22:16;2.95;;;0.70;;
48526;SDS011;34317;51.660;5.824;2023-12-22T14:24:43;5.25;;;0.90;;
48526;SDS011;34317;51.660;5.824;2023-12-22T14:27:11;4.03;;;1.33;;
48526;SDS011;34317;51.660;5.824;2023-12-22T14:29:38;5.15;;;1.10;;
48526;SDS011;34317;51.660;5.824;2023-12-22T14:32:07;5.30;;;1.00;;
48526;SDS011;34317;51.660;5.824;2023-12-22T14:34:39;4.18;;;0.95;;
48526;SDS011;34317;51.660;5.824;2023-12-22T14:37:06;3.67;;;1.10;;
48526;SDS011;34317;51.660;5.824;2023-12-22T14:39:33;4.80;;;1.00;;
48526;SDS011;34317;51.660;5.824;2023-12-22T14:42:02;6.57;;;1.10;;
48526;SDS011;34317;51.660;5.824;2023-12-22T14:44:30;2.60;;;0.82;;
48526;SDS011;34317;51.660;5.824;2023-12-22T14:46:57;7.18;;;0.80;;
48526;SDS011;34317;51.660;5.824;2023-12-22T14:49:24;4.97;;;0.90;;
48526;SDS011;34317;51.660;5.824;2023-12-22T14:51:52;3.50;;;0.90;;
48526;SDS011;34317;51.660;5.824;2023-12-22T14:54:21;2.42;;;1.13;;
48526;SDS011;34317;51.660;5.824;2023-12-22T14:56:48;3.90;;;0.93;;
48526;SDS011;34317;51.660;5.824;2023-12-22T14:59:16;3.80;;;0.88;;